sensor_id;sensor_type;location;lat;lon;timestamp;pressure;altitude;pressure_sealevel;temperature;humidity
49723;BME280;43484;43.608;1.458;2022-10-16T00:01:15;99433.22;;;18.93;100.00
49723;BME280;43484;43.608;1.458;2022-10-16T00:03:43;99431.34;;;19.06;100.00
49723;BME280;43484;43.608;1.458;2022-10-16T00:06:11;99437.47;;;19.02;100.00
49723;BME280;43484;43.608;1.458;2022-10-16T00:08:38;99434.91;;;18.99;100.00
49723;BME280;43484;43.608;1.458;2022-10-16T00:11:11;99424.53;;;18.97;100.00
49723;BME280;43484;43.608;1.458;2022-10-16T00:13:40;99428.72;;;19.09;100.00
49723;BME280;43484;43.608;1.458;2022-10-16T00:16:07;99426.13;;;19.10;100.00
49723;BME280;43484;43.608;1.458;2022-10-16T00:18:34;99429.59;;;19.06;100.00
49723;BME280;43484;43.608;1.458;2022-10-16T00:21:06;99430.53;;;19.01;100.00
49723;BME280;43484;43.608;1.458;2022-10-16T00:23:33;99415.84;;;18.98;100.00
49723;BME280;43484;43.608;1.458;2022-10-16T00:26:06;99404.59;;;18.98;100.00
49723;BME280;43484;43.608;1.458;2022-10-16T00:28:34;99405.44;;;19.00;100.00
49723;BME280;43484;43.608;1.458;2022-10-16T00:31:06;99406.28;;;19.03;100.00
49723;BME280;43484;43.608;1.458;2022-10-16T00:33:34;99398.56;;;18.97;100.00
49723;BME280;43484;43.608;1.458;2022-10-16T00:36:03;99399.44;;;18.96;100.00
49723;BME280;43484;43.608;1.458;2022-10-16T00:38:31;99394.31;;;18.92;100.00
49723;BME280;43484;43.608;1.458;2022-10-16T00:40:57;99381.31;;;18.92;100.00
49723;BME280;43484;43.608;1.458;2022-10-16T00:43:43;99393.19;;;19.11;100.00
49723;BME280;43484;43.608;1.458;2022-10-16T00:46:20;99392.56;;;18.92;100.00
49723;BME280;43484;43.608;1.458;2022-10-16T00:48:55;99391.59;;;18.99;100.00
49723;BME280;43484;43.608;1.458;2022-10-16T00:51:46;99392.38;;;19.06;100.00
49723;BME280;43484;43.608;1.458;2022-10-16T00:54:23;99395.97;;;18.99;100.00
49723;BME280;43484;43.608;1.458;2022-10-16T00:56:51;99392.41;;;19.07;100.00
49723;BME280;43484;43.608;1.458;2022-10-16T00:59:45;99392.50;;;18.98;100.00
49723;BME280;43484;43.608;1.458;2022-10-16T01:02:14;99388.13;;;19.02;100.00
49723;BME280;43484;43.608;1.458;2022-10-16T01:04:50;99386.41;;;18.99;100.00
49723;BME280;43484;43.608;1.458;2022-10-16T01:13:00;99396.72;;;19.07;100.00
49723;BME280;43484;43.608;1.458;2022-10-16T01:15:48;99385.44;;;19.09;100.00
49723;BME280;43484;43.608;1.458;2022-10-16T01:18:44;99388.19;;;18.96;100.00
49723;BME280;43484;43.608;1.458;2022-10-16T01:23:59;99378.41;;;19.16;100.00
49723;BME280;43484;43.608;1.458;2022-10-16T01:32:01;99369.81;;;19.11;100.00
49723;BME280;43484;43.608;1.458;2022-10-16T01:34:58;99340.56;;;18.98;100.00
49723;BME280;43484;43.608;1.458;2022-10-16T01:37:46;99343.69;;;19.24;100.00
49723;BME280;43484;43.608;1.458;2022-10-16T01:40:18;99348.94;;;19.20;100.00
49723;BME280;43484;43.608;1.458;2022-10-16T01:42:48;99342.06;;;19.16;100.00
49723;BME280;43484;43.608;1.458;2022-10-16T01:45:18;99346.25;;;19.26;100.00
49723;BME280;43484;43.608;1.458;2022-10-16T01:47:48;99329.09;;;19.17;100.00
49723;BME280;43484;43.608;1.458;2022-10-16T01:50:18;99326.47;;;19.16;100.00
49723;BME280;43484;43.608;1.458;2022-10-16T01:52:49;99314.34;;;19.18;100.00
49723;BME280;43484;43.608;1.458;2022-10-16T01:55:25;99317.69;;;19.27;100.00
49723;BME280;43484;43.608;1.458;2022-10-16T01:57:54;99312.50;;;19.30;100.00
49723;BME280;43484;43.608;1.458;2022-10-16T02:00:22;99307.31;;;19.26;100.00
49723;BME280;43484;43.608;1.458;2022-10-16T02:02:52;99290.84;;;19.30;100.00
49723;BME280;43484;43.608;1.458;2022-10-16T02:05:26;99278.69;;;19.32;100.00
49723;BME280;43484;43.608;1.458;2022-10-16T02:07:54;99269.16;;;19.34;100.00
49723;BME280;43484;43.608;1.458;2022-10-16T02:10:22;99268.34;;;19.27;100.00
49723;BME280;43484;43.608;1.458;2022-10-16T02:12:56;99251.00;;;19.28;100.00
49723;BME280;43484;43.608;1.458;2022-10-16T02:15:24;99242.41;;;19.24;100.00
49723;BME280;43484;43.608;1.458;2022-10-16T02:17:51;99225.22;;;19.16;100.00
49723;BME280;43484;43.608;1.458;2022-10-16T02:20:20;99226.00;;;19.22;100.00
49723;BME280;43484;43.608;1.458;2022-10-16T02:22:50;99211.25;;;19.23;100.00
49723;BME280;43484;43.608;1.458;2022-10-16T02:28:03;99199.22;;;19.19;100.00
49723;BME280;43484;43.608;1.458;2022-10-16T02:30:50;99187.97;;;19.18;100.00
49723;BME280;43484;43.608;1.458;2022-10-16T02:33:19;99184.38;;;19.27;100.00
49723;BME280;43484;43.608;1.458;2022-10-16T02:35:49;99189.59;;;19.25;100.00
49723;BME280;43484;43.608;1.458;2022-10-16T02:38:18;99185.25;;;19.27;100.00
49723;BME280;43484;43.608;1.458;2022-10-16T02:40:46;99183.53;;;19.25;100.00
49723;BME280;43484;43.608;1.458;2022-10-16T02:43:13;99180.97;;;19.23;100.00
49723;BME280;43484;43.608;1.458;2022-10-16T02:45:39;99173.16;;;19.25;100.00
49723;BME280;43484;43.608;1.458;2022-10-16T02:48:06;99165.38;;;19.23;100.00
49723;BME280;43484;43.608;1.458;2022-10-16T02:50:33;99158.44;;;19.25;100.00
49723;BME280;43484;43.608;1.458;2022-10-16T02:52:59;99156.81;;;19.18;100.00
49723;BME280;43484;43.608;1.458;2022-10-16T02:55:26;99155.81;;;19.27;100.00
49723;BME280;43484;43.608;1.458;2022-10-16T02:57:54;99153.28;;;19.22;100.00
49723;BME280;43484;43.608;1.458;2022-10-16T03:00:20;99148.94;;;19.23;100.00
49723;BME280;43484;43.608;1.458;2022-10-16T03:02:47;99150.69;;;19.22;100.00
49723;BME280;43484;43.608;1.458;2022-10-16T03:05:13;99146.34;;;19.23;100.00
49723;BME280;43484;43.608;1.458;2022-10-16T03:07:40;99142.00;;;19.23;100.00
49723;BME280;43484;43.608;1.458;2022-10-16T03:10:07;99154.13;;;19.23;100.00
49723;BME280;43484;43.608;1.458;2022-10-16T03:12:33;99135.91;;;19.26;100.00
49723;BME280;43484;43.608;1.458;2022-10-16T03:15:00;99128.34;;;19.11;100.00
49723;BME280;43484;43.608;1.458;2022-10-16T03:17:27;99125.88;;;19.05;100.00
49723;BME280;43484;43.608;1.458;2022-10-16T03:19:53;99125.72;;;19.14;100.00
49723;BME280;43484;43.608;1.458;2022-10-16T03:22:20;99119.56;;;19.19;100.00
49723;BME280;43484;43.608;1.458;2022-10-16T03:24:47;99119.69;;;19.12;100.00
49723;BME280;43484;43.608;1.458;2022-10-16T03:27:14;99128.19;;;19.21;100.00
49723;BME280;43484;43.608;1.458;2022-10-16T03:29:40;99119.66;;;19.15;100.00
49723;BME280;43484;43.608;1.458;2022-10-16T03:32:07;99119.50;;;19.24;100.00
49723;BME280;43484;43.608;1.458;2022-10-16T03:34:33;99112.56;;;19.24;100.00
49723;BME280;43484;43.608;1.458;2022-10-16T03:37:00;99115.28;;;19.17;100.00
49723;BME280;43484;43.608;1.458;2022-10-16T03:39:26;99106.63;;;19.16;100.00
49723;BME280;43484;43.608;1.458;2022-10-16T03:41:53;99113.47;;;19.22;100.00
49723;BME280;43484;43.608;1.458;2022-10-16T03:44:20;99119.50;;;19.24;100.00
49723;BME280;43484;43.608;1.458;2022-10-16T03:46:46;99113.34;;;19.32;100.00
49723;BME280;43484;43.608;1.458;2022-10-16T03:49:13;99116.09;;;19.20;100.00
49723;BME280;43484;43.608;1.458;2022-10-16T03:51:39;99109.19;;;19.18;100.00
49723;BME280;43484;43.608;1.458;2022-10-16T03:54:06;99103.19;;;19.14;100.00
49723;BME280;43484;43.608;1.458;2022-10-16T03:56:32;99089.25;;;19.21;100.00
49723;BME280;43484;43.608;1.458;2022-10-16T03:58:59;99098.75;;;19.22;100.00
49723;BME280;43484;43.608;1.458;2022-10-16T04:01:25;99101.28;;;19.27;100.00
49723;BME280;43484;43.608;1.458;2022-10-16T04:03:52;99103.09;;;19.22;100.00
49723;BME280;43484;43.608;1.458;2022-10-16T04:06:19;99097.78;;;19.29;100.00
49723;BME280;43484;43.608;1.458;2022-10-16T04:08:46;99094.44;;;19.21;100.00
49723;BME280;43484;43.608;1.458;2022-10-16T04:11:12;99096.00;;;19.33;100.00
49723;BME280;43484;43.608;1.458;2022-10-16T04:13:39;99105.53;;;19.32;100.00
49723;BME280;43484;43.608;1.458;2022-10-16T04:16:06;99099.34;;;19.39;100.00
49723;BME280;43484;43.608;1.458;2022-10-16T04:18:32;99101.28;;;19.27;100.00
49723;BME280;43484;43.608;1.458;2022-10-16T04:21:06;99101.97;;;19.38;100.00
49723;BME280;43484;43.608;1.458;2022-10-16T04:23:32;99098.66;;;19.30;100.00
49723;BME280;43484;43.608;1.458;2022-10-16T04:25:59;99090.72;;;19.36;100.00
49723;BME280;43484;43.608;1.458;2022-10-16T04:28:26;99099.31;;;19.42;100.00
49723;BME280;43484;43.608;1.458;2022-10-16T04:30:54;99108.16;;;19.32;100.00
49723;BME280;43484;43.608;1.458;2022-10-16T04:33:20;99107.13;;;19.39;100.00
49723;BME280;43484;43.608;1.458;2022-10-16T04:35:47;99105.28;;;19.46;100.00
49723;BME280;43484;43.608;1.458;2022-10-16T04:38:13;99121.72;;;19.46;100.00
49723;BME280;43484;43.608;1.458;2022-10-16T04:40:42;99123.28;;;19.56;100.00
49723;BME280;43484;43.608;1.458;2022-10-16T04:43:09;99138.88;;;19.56;100.00
49723;BME280;43484;43.608;1.458;2022-10-16T04:45:35;99150.88;;;19.63;100.00
49723;BME280;43484;43.608;1.458;2022-10-16T04:48:02;99163.91;;;19.62;100.00
49723;BME280;43484;43.608;1.458;2022-10-16T04:50:28;99160.56;;;19.55;100.00
49723;BME280;43484;43.608;1.458;2022-10-16T04:52:55;99160.47;;;19.60;100.00
49723;BME280;43484;43.608;1.458;2022-10-16T04:55:22;99172.44;;;19.68;100.00
49723;BME280;43484;43.608;1.458;2022-10-16T04:57:48;99166.53;;;19.60;100.00
49723;BME280;43484;43.608;1.458;2022-10-16T05:00:15;99174.97;;;19.71;100.00
49723;BME280;43484;43.608;1.458;2022-10-16T05:02:41;99182.72;;;19.74;100.00
49723;BME280;43484;43.608;1.458;2022-10-16T05:05:08;99187.13;;;19.69;100.00
49723;BME280;43484;43.608;1.458;2022-10-16T05:07:35;99170.00;;;19.59;100.00
49723;BME280;43484;43.608;1.458;2022-10-16T05:10:01;99172.56;;;19.61;100.00
49723;BME280;43484;43.608;1.458;2022-10-16T05:12:28;99174.13;;;19.69;100.00
49723;BME280;43484;43.608;1.458;2022-10-16T05:14:54;99162.38;;;19.50;100.00
49723;BME280;43484;43.608;1.458;2022-10-16T05:17:25;99164.00;;;19.54;100.00
49723;BME280;43484;43.608;1.458;2022-10-16T05:19:52;99171.88;;;19.51;100.00
49723;BME280;43484;43.608;1.458;2022-10-16T05:22:19;99171.72;;;19.60;100.00
49723;BME280;43484;43.608;1.458;2022-10-16T05:24:45;99177.75;;;19.61;100.00
49723;BME280;43484;43.608;1.458;2022-10-16T05:27:12;99192.44;;;19.65;100.00
49723;BME280;43484;43.608;1.458;2022-10-16T05:29:48;99189.03;;;19.60;100.00
49723;BME280;43484;43.608;1.458;2022-10-16T05:32:16;99199.28;;;19.69;100.00
49723;BME280;43484;43.608;1.458;2022-10-16T05:34:43;99198.50;;;19.64;100.00
49723;BME280;43484;43.608;1.458;2022-10-16T05:37:11;99202.94;;;19.59;100.00
49723;BME280;43484;43.608;1.458;2022-10-16T05:39:38;99204.22;;;19.84;100.00
49723;BME280;43484;43.608;1.458;2022-10-16T05:42:05;99214.75;;;19.76;100.00
49723;BME280;43484;43.608;1.458;2022-10-16T05:44:32;99212.88;;;19.83;100.00
49723;BME280;43484;43.608;1.458;2022-10-16T05:46:59;99234.53;;;19.85;100.00
49723;BME280;43484;43.608;1.458;2022-10-16T05:49:25;99225.03;;;19.84;100.00
49723;BME280;43484;43.608;1.458;2022-10-16T05:51:52;99221.47;;;19.88;100.00
49723;BME280;43484;43.608;1.458;2022-10-16T05:54:18;99225.81;;;19.86;100.00
49723;BME280;43484;43.608;1.458;2022-10-16T05:56:45;99224.16;;;19.83;100.00
49723;BME280;43484;43.608;1.458;2022-10-16T05:59:11;99224.25;;;19.79;100.00
49723;BME280;43484;43.608;1.458;2022-10-16T06:01:38;99225.06;;;19.79;100.00
49723;BME280;43484;43.608;1.458;2022-10-16T06:04:05;99210.34;;;19.80;100.00
49723;BME280;43484;43.608;1.458;2022-10-16T06:06:31;99214.66;;;19.81;100.00
49723;BME280;43484;43.608;1.458;2022-10-16T06:08:58;99212.94;;;19.80;100.00
49723;BME280;43484;43.608;1.458;2022-10-16T06:11:28;99211.25;;;19.79;100.00
49723;BME280;43484;43.608;1.458;2022-10-16T06:13:58;99221.41;;;19.92;100.00
49723;BME280;43484;43.608;1.458;2022-10-16T06:16:26;99225.03;;;19.84;100.00
49723;BME280;43484;43.608;1.458;2022-10-16T06:18:54;99227.66;;;19.81;100.00
49723;BME280;43484;43.608;1.458;2022-10-16T06:21:23;99229.28;;;19.86;100.00
49723;BME280;43484;43.608;1.458;2022-10-16T06:23:55;99228.69;;;19.71;100.00
49723;BME280;43484;43.608;1.458;2022-10-16T06:26:25;99226.72;;;19.85;100.00
49723;BME280;43484;43.608;1.458;2022-10-16T06:28:54;99228.72;;;19.69;100.00
49723;BME280;43484;43.608;1.458;2022-10-16T06:31:21;99219.75;;;19.87;100.00
49723;BME280;43484;43.608;1.458;2022-10-16T06:33:52;99237.22;;;19.80;100.00
49723;BME280;43484;43.608;1.458;2022-10-16T06:36:20;99233.72;;;19.81;100.00
49723;BME280;43484;43.608;1.458;2022-10-16T06:38:46;99238.75;;;19.90;100.00
49723;BME280;43484;43.608;1.458;2022-10-16T06:41:15;99241.34;;;19.92;100.00
49723;BME280;43484;43.608;1.458;2022-10-16T06:43:42;99252.63;;;19.89;100.00
49723;BME280;43484;43.608;1.458;2022-10-16T06:46:11;99262.72;;;20.06;100.00
49723;BME280;43484;43.608;1.458;2022-10-16T06:48:38;99273.28;;;19.98;100.00
49723;BME280;43484;43.608;1.458;2022-10-16T06:51:10;99278.38;;;20.05;100.00
49723;BME280;43484;43.608;1.458;2022-10-16T06:53:40;99298.19;;;20.12;100.00
49723;BME280;43484;43.608;1.458;2022-10-16T06:56:28;99326.72;;;20.19;100.00
49723;BME280;43484;43.608;1.458;2022-10-16T06:58:58;99326.66;;;20.22;100.00
49723;BME280;43484;43.608;1.458;2022-10-16T07:01:25;99331.94;;;20.15;100.00
49723;BME280;43484;43.608;1.458;2022-10-16T07:03:52;99337.94;;;20.23;100.00
49723;BME280;43484;43.608;1.458;2022-10-16T07:06:21;99343.97;;;20.23;100.00
49723;BME280;43484;43.608;1.458;2022-10-16T07:08:49;99352.75;;;20.16;100.00
49723;BME280;43484;43.608;1.458;2022-10-16T07:11:18;99360.25;;;20.34;100.00
49723;BME280;43484;43.608;1.458;2022-10-16T07:13:45;99364.91;;;20.16;100.00
49723;BME280;43484;43.608;1.458;2022-10-16T07:16:21;99365.50;;;20.31;100.00
49723;BME280;43484;43.608;1.458;2022-10-16T07:18:48;99370.09;;;20.17;100.00
49723;BME280;43484;43.608;1.458;2022-10-16T07:21:18;99384.25;;;20.50;100.00
49723;BME280;43484;43.608;1.458;2022-10-16T07:23:50;99394.63;;;20.51;100.00
49723;BME280;43484;43.608;1.458;2022-10-16T07:26:17;99434.34;;;20.62;100.00
49723;BME280;43484;43.608;1.458;2022-10-16T07:28:43;99424.19;;;20.49;100.00
49723;BME280;43484;43.608;1.458;2022-10-16T07:31:12;99419.72;;;20.55;100.00
49723;BME280;43484;43.608;1.458;2022-10-16T07:33:41;99437.69;;;20.70;100.00
49723;BME280;43484;43.608;1.458;2022-10-16T07:36:11;99430.06;;;20.61;100.00
49723;BME280;43484;43.608;1.458;2022-10-16T07:38:42;99462.00;;;20.69;100.00
49723;BME280;43484;43.608;1.458;2022-10-16T07:41:11;99444.88;;;20.56;100.00
49723;BME280;43484;43.608;1.458;2022-10-16T07:43:38;99453.50;;;20.58;100.00
49723;BME280;43484;43.608;1.458;2022-10-16T07:46:05;99455.16;;;20.64;100.00
49723;BME280;43484;43.608;1.458;2022-10-16T07:48:33;99463.81;;;20.64;100.00
49723;BME280;43484;43.608;1.458;2022-10-16T07:51:03;99473.19;;;20.74;100.00
49723;BME280;43484;43.608;1.458;2022-10-16T07:53:31;99499.59;;;21.03;100.00
49723;BME280;43484;43.608;1.458;2022-10-16T07:55:59;99516.19;;;20.99;100.00
49723;BME280;43484;43.608;1.458;2022-10-16T07:58:27;99520.34;;;21.09;100.00
49723;BME280;43484;43.608;1.458;2022-10-16T08:00:54;99524.59;;;21.13;100.00
49723;BME280;43484;43.608;1.458;2022-10-16T08:03:21;99539.28;;;21.19;100.00
49723;BME280;43484;43.608;1.458;2022-10-16T08:05:49;99532.41;;;21.13;100.00
49723;BME280;43484;43.608;1.458;2022-10-16T08:08:17;99519.63;;;21.01;100.00
49723;BME280;43484;43.608;1.458;2022-10-16T08:10:44;99509.25;;;20.98;100.00
49723;BME280;43484;43.608;1.458;2022-10-16T08:13:10;99509.22;;;21.00;100.00
49723;BME280;43484;43.608;1.458;2022-10-16T08:15:39;99515.19;;;21.06;100.00
49723;BME280;43484;43.608;1.458;2022-10-16T08:18:06;99501.41;;;21.01;100.00
49723;BME280;43484;43.608;1.458;2022-10-16T08:20:33;99507.44;;;21.02;100.00
49723;BME280;43484;43.608;1.458;2022-10-16T08:23:00;99508.38;;;20.99;100.00
49723;BME280;43484;43.608;1.458;2022-10-16T08:25:27;99511.88;;;20.95;100.00
49723;BME280;43484;43.608;1.458;2022-10-16T08:27:54;99504.81;;;21.03;100.00
49723;BME280;43484;43.608;1.458;2022-10-16T08:30:22;99522.97;;;21.08;100.00
49723;BME280;43484;43.608;1.458;2022-10-16T08:32:50;99527.38;;;21.04;100.00
49723;BME280;43484;43.608;1.458;2022-10-16T08:35:16;99530.78;;;21.08;100.00
49723;BME280;43484;43.608;1.458;2022-10-16T08:37:43;99540.16;;;21.18;100.00
49723;BME280;43484;43.608;1.458;2022-10-16T08:40:19;99549.50;;;21.30;100.00
49723;BME280;43484;43.608;1.458;2022-10-16T08:51:07;99598.75;;;21.45;100.00
49723;BME280;43484;43.608;1.458;2022-10-16T08:53:42;99611.47;;;21.61;100.00
49723;BME280;43484;43.608;1.458;2022-10-16T08:56:11;99605.50;;;21.55;100.00
49723;BME280;43484;43.608;1.458;2022-10-16T08:58:37;99620.97;;;21.64;100.00
49723;BME280;43484;43.608;1.458;2022-10-16T09:01:12;99626.00;;;21.74;100.00
49723;BME280;43484;43.608;1.458;2022-10-16T09:06:52;99641.38;;;21.89;100.00
49723;BME280;43484;43.608;1.458;2022-10-16T09:12:14;99644.75;;;21.94;100.00
49723;BME280;43484;43.608;1.458;2022-10-16T09:15:29;99643.84;;;21.97;100.00
49723;BME280;43484;43.608;1.458;2022-10-16T09:20:23;99655.31;;;22.31;100.00
49723;BME280;43484;43.608;1.458;2022-10-16T09:23:12;99657.81;;;22.35;100.00
49723;BME280;43484;43.608;1.458;2022-10-16T09:25:43;99663.38;;;22.19;100.00
49723;BME280;43484;43.608;1.458;2022-10-16T09:28:11;99667.03;;;22.12;100.00
49723;BME280;43484;43.608;1.458;2022-10-16T09:30:38;99669.41;;;22.22;100.00
49723;BME280;43484;43.608;1.458;2022-10-16T09:33:06;99676.19;;;22.31;100.00
49723;BME280;43484;43.608;1.458;2022-10-16T09:35:39;99669.22;;;22.31;100.00
49723;BME280;43484;43.608;1.458;2022-10-16T09:38:07;99679.47;;;22.40;100.00
49723;BME280;43484;43.608;1.458;2022-10-16T09:40:36;99689.06;;;22.40;100.00
49723;BME280;43484;43.608;1.458;2022-10-16T09:43:25;99684.53;;;22.48;100.00
49723;BME280;43484;43.608;1.458;2022-10-16T09:46:03;99680.03;;;22.56;100.00
49723;BME280;43484;43.608;1.458;2022-10-16T09:48:37;99672.22;;;22.56;100.00
49723;BME280;43484;43.608;1.458;2022-10-16T09:51:13;99669.53;;;22.59;100.00
49723;BME280;43484;43.608;1.458;2022-10-16T09:53:44;99678.88;;;22.69;100.00
49723;BME280;43484;43.608;1.458;2022-10-16T09:56:20;99688.63;;;22.61;100.00
49723;BME280;43484;43.608;1.458;2022-10-16T09:58:53;99684.84;;;22.74;100.00
49723;BME280;43484;43.608;1.458;2022-10-16T10:01:21;99697.00;;;22.77;100.00
49723;BME280;43484;43.608;1.458;2022-10-16T10:03:49;99699.84;;;22.66;100.00
49723;BME280;43484;43.608;1.458;2022-10-16T10:09:01;99699.25;;;22.93;100.00
49723;BME280;43484;43.608;1.458;2022-10-16T10:11:44;99693.81;;;23.02;100.00
49723;BME280;43484;43.608;1.458;2022-10-16T10:17:21;99694.34;;;23.16;100.00
49723;BME280;43484;43.608;1.458;2022-10-16T10:20:15;99694.28;;;23.18;100.00
49723;BME280;43484;43.608;1.458;2022-10-16T10:22:44;99693.41;;;23.19;100.00
49723;BME280;43484;43.608;1.458;2022-10-16T10:38:50;99684.69;;;23.55;100.00
49723;BME280;43484;43.608;1.458;2022-10-16T10:44:32;99661.78;;;23.65;100.00
49723;BME280;43484;43.608;1.458;2022-10-16T10:52:56;99666.47;;;23.86;100.00
49723;BME280;43484;43.608;1.458;2022-10-16T10:55:31;99669.06;;;23.86;100.00
49723;BME280;43484;43.608;1.458;2022-10-16T10:58:28;99670.69;;;23.90;100.00
49723;BME280;43484;43.608;1.458;2022-10-16T11:01:14;99678.47;;;23.93;100.00
49723;BME280;43484;43.608;1.458;2022-10-16T11:06:37;99670.47;;;23.99;100.00
49723;BME280;43484;43.608;1.458;2022-10-16T11:12:17;99668.81;;;23.95;100.00
49723;BME280;43484;43.608;1.458;2022-10-16T11:15:00;99677.41;;;24.01;100.00
49723;BME280;43484;43.608;1.458;2022-10-16T11:17:39;99677.22;;;24.07;100.00
49723;BME280;43484;43.608;1.458;2022-10-16T11:20:19;99663.97;;;24.13;100.00
49723;BME280;43484;43.608;1.458;2022-10-16T11:22:58;99674.91;;;24.27;100.00
49723;BME280;43484;43.608;1.458;2022-10-16T11:25:29;99667.97;;;24.26;100.00
49723;BME280;43484;43.608;1.458;2022-10-16T11:28:03;99671.66;;;24.19;100.00
49723;BME280;43484;43.608;1.458;2022-10-16T11:31:03;99665.22;;;24.31;100.00
49723;BME280;43484;43.608;1.458;2022-10-16T11:33:33;99654.78;;;24.29;100.00
49723;BME280;43484;43.608;1.458;2022-10-16T11:36:11;99642.47;;;24.33;100.00
49723;BME280;43484;43.608;1.458;2022-10-16T11:39:00;99649.31;;;24.37;100.00
49723;BME280;43484;43.608;1.458;2022-10-16T11:41:42;99655.13;;;24.48;100.00
49723;BME280;43484;43.608;1.458;2022-10-16T11:47:34;99646.44;;;24.46;100.00
49723;BME280;43484;43.608;1.458;2022-10-16T11:53:23;99640.13;;;24.53;100.00
49723;BME280;43484;43.608;1.458;2022-10-16T11:55:52;99624.63;;;24.45;100.00
49723;BME280;43484;43.608;1.458;2022-10-16T11:58:29;99606.13;;;24.50;100.00
49723;BME280;43484;43.608;1.458;2022-10-16T12:01:12;99593.75;;;24.55;100.00
49723;BME280;43484;43.608;1.458;2022-10-16T12:03:54;99591.84;;;24.61;100.00
49723;BME280;43484;43.608;1.458;2022-10-16T12:08:52;99582.59;;;24.77;100.00
49723;BME280;43484;43.608;1.458;2022-10-16T12:11:31;99585.28;;;24.76;100.00
49723;BME280;43484;43.608;1.458;2022-10-16T12:16:33;99578.19;;;24.80;100.00
49723;BME280;43484;43.608;1.458;2022-10-16T12:19:11;99584.56;;;24.71;100.00
49723;BME280;43484;43.608;1.458;2022-10-16T12:21:38;99581.72;;;24.77;100.00
49723;BME280;43484;43.608;1.458;2022-10-16T12:24:06;99574.53;;;24.84;100.00
49723;BME280;43484;43.608;1.458;2022-10-16T12:26:36;99563.41;;;24.77;100.00
49723;BME280;43484;43.608;1.458;2022-10-16T12:29:21;99563.28;;;24.80;100.00
49723;BME280;43484;43.608;1.458;2022-10-16T12:31:49;99571.84;;;24.87;100.00
49723;BME280;43484;43.608;1.458;2022-10-16T12:34:27;99562.34;;;24.83;100.00
49723;BME280;43484;43.608;1.458;2022-10-16T12:36:55;99564.69;;;24.90;100.00
49723;BME280;43484;43.608;1.458;2022-10-16T12:39:24;99578.56;;;24.94;100.00
49723;BME280;43484;43.608;1.458;2022-10-16T12:42:02;99566.09;;;25.00;100.00
49723;BME280;43484;43.608;1.458;2022-10-16T12:44:35;99562.25;;;25.12;100.00
49723;BME280;43484;43.608;1.458;2022-10-16T12:47:02;99558.22;;;25.02;100.00
49723;BME280;43484;43.608;1.458;2022-10-16T12:49:30;99563.53;;;25.25;100.00
49723;BME280;43484;43.608;1.458;2022-10-16T12:51:57;99553.19;;;25.20;100.00
49723;BME280;43484;43.608;1.458;2022-10-16T12:54:37;99551.38;;;25.22;100.00
49723;BME280;43484;43.608;1.458;2022-10-16T12:57:09;99566.88;;;25.30;100.00
49723;BME280;43484;43.608;1.458;2022-10-16T13:02:52;99567.91;;;25.24;100.00
49723;BME280;43484;43.608;1.458;2022-10-16T13:11:22;99574.94;;;25.24;100.00
49723;BME280;43484;43.608;1.458;2022-10-16T13:14:09;99586.69;;;25.12;100.00
49723;BME280;43484;43.608;1.458;2022-10-16T13:27:22;99588.28;;;24.90;100.00
49723;BME280;43484;43.608;1.458;2022-10-16T13:30:02;99586.03;;;24.80;100.00
49723;BME280;43484;43.608;1.458;2022-10-16T13:32:34;99590.91;;;24.90;100.00
49723;BME280;43484;43.608;1.458;2022-10-16T13:35:01;99594.94;;;25.00;100.00
49723;BME280;43484;43.608;1.458;2022-10-16T13:37:28;99591.63;;;24.95;100.00
49723;BME280;43484;43.608;1.458;2022-10-16T13:40:27;99588.91;;;24.98;100.00
49723;BME280;43484;43.608;1.458;2022-10-16T13:42:54;99590.41;;;25.05;100.00
49723;BME280;43484;43.608;1.458;2022-10-16T13:45:24;99599.94;;;25.08;100.00
49723;BME280;43484;43.608;1.458;2022-10-16T13:48:05;99582.53;;;25.07;100.00
49723;BME280;43484;43.608;1.458;2022-10-16T13:50:32;99591.22;;;25.07;100.00
49723;BME280;43484;43.608;1.458;2022-10-16T13:53:13;99582.88;;;24.96;100.00
49723;BME280;43484;43.608;1.458;2022-10-16T13:55:40;99591.44;;;25.01;100.00
49723;BME280;43484;43.608;1.458;2022-10-16T13:58:10;99590.56;;;25.01;100.00
49723;BME280;43484;43.608;1.458;2022-10-16T14:00:37;99591.59;;;24.97;100.00
49723;BME280;43484;43.608;1.458;2022-10-16T14:03:16;99593.13;;;25.02;100.00
49723;BME280;43484;43.608;1.458;2022-10-16T14:05:48;99597.63;;;24.99;100.00
49723;BME280;43484;43.608;1.458;2022-10-16T14:08:15;99589.91;;;24.94;100.00
49723;BME280;43484;43.608;1.458;2022-10-16T14:10:42;99597.06;;;24.89;100.00
49723;BME280;43484;43.608;1.458;2022-10-16T14:13:17;99597.06;;;24.89;100.00
49723;BME280;43484;43.608;1.458;2022-10-16T14:15:47;99592.59;;;24.93;100.00
49723;BME280;43484;43.608;1.458;2022-10-16T14:18:21;99591.72;;;24.92;100.00
49723;BME280;43484;43.608;1.458;2022-10-16T14:20:49;99596.03;;;24.95;100.00
49723;BME280;43484;43.608;1.458;2022-10-16T14:23:37;99600.25;;;24.99;100.00
49723;BME280;43484;43.608;1.458;2022-10-16T14:28:37;99610.78;;;24.97;100.00
49723;BME280;43484;43.608;1.458;2022-10-16T14:33:45;99618.13;;;24.86;100.00
49723;BME280;43484;43.608;1.458;2022-10-16T14:36:13;99609.50;;;24.83;100.00
49723;BME280;43484;43.608;1.458;2022-10-16T14:38:48;99605.22;;;24.80;100.00
49723;BME280;43484;43.608;1.458;2022-10-16T14:41:14;99608.81;;;24.77;100.00
49723;BME280;43484;43.608;1.458;2022-10-16T14:43:42;99606.84;;;24.84;100.00
49723;BME280;43484;43.608;1.458;2022-10-16T14:46:21;99604.94;;;24.60;100.00
49723;BME280;43484;43.608;1.458;2022-10-16T14:49:01;99602.97;;;24.69;100.00
49723;BME280;43484;43.608;1.458;2022-10-16T14:51:28;99603.63;;;24.76;100.00
49723;BME280;43484;43.608;1.458;2022-10-16T14:53:55;99615.94;;;24.72;100.00